Time;durP1;ratioP1;P1;durP2;ratioP2;P2;SDS_P1;SDS_P2;PMS_P1;PMS_P2;Temp;Humidity;BMP_temperature;BMP_pressure;BME280_temperature;BME280_humidity;BME280_pressure;Samples;Min_cycle;Max_cycle;Signal;HPM_P1;HPM_P2
2023/08/28 00:01:33;;;;;;;15.10;13.70;;;;;;;20.32;100.00;95946.10;108416;1276;22540;-85
2023/08/28 00:04:01;;;;;;;15.50;14.00;;;;;;;20.32;100.00;95955.17;108441;1276;25423;-85
2023/08/28 00:06:29;;;;;;;17.90;16.30;;;;;;;20.30;100.00;95963.54;108449;1276;24206;-85
2023/08/28 00:08:57;;;;;;;14.80;13.20;;;;;;;20.30;100.00;95968.77;108409;1276;22547;-85
2023/08/28 00:11:25;;;;;;;17.30;15.70;;;;;;;20.32;100.00;95975.64;108439;1276;24365;-85
2023/08/28 00:13:55;;;;;;;17.90;16.30;;;;;;;20.28;100.00;95985.48;108453;1270;22591;-85
2023/08/28 00:16:25;;;;;;;19.40;17.60;;;;;;;20.11;100.00;95987.55;108427;1276;22536;-85
2023/08/28 00:18:53;;;;;;;18.00;16.10;;;;;;;20.03;100.00;95990.63;108459;1276;24272;-84
2023/08/28 00:21:21;;;;;;;18.70;17.00;;;;;;;20.03;100.00;95994.31;108411;1276;24243;-85
2023/08/28 00:23:49;;;;;;;20.10;18.10;;;;;;;20.07;100.00;95998.54;108426;1276;22541;-85
2023/08/28 00:26:17;;;;;;;18.60;16.80;;;;;;;20.10;100.00;96006.98;108450;1271;22524;-85
2023/08/28 00:28:46;;;;;;;19.60;17.80;;;;;;;20.11;100.00;96007.06;108451;1273;22571;-85
2023/08/28 00:31:15;;;;;;;19.30;17.50;;;;;;;20.09;100.00;96012.34;108422;1276;22527;-85
2023/08/28 00:33:44;;;;;;;20.70;18.80;;;;;;;20.08;100.00;96016.39;108416;1270;22545;-85
2023/08/28 00:36:12;;;;;;;21.60;19.70;;;;;;;20.06;100.00;96017.82;108433;1276;22534;-85
2023/08/28 00:38:40;;;;;;;20.70;18.70;;;;;;;20.07;100.00;96021.15;108401;1273;23010;-85
2023/08/28 00:41:08;;;;;;;21.40;19.40;;;;;;;20.08;100.00;96025.00;108422;1276;24307;-85
2023/08/28 00:43:37;;;;;;;20.30;18.30;;;;;;;20.11;100.00;96022.44;108394;1265;22534;-85
2023/08/28 00:46:06;;;;;;;18.60;16.90;;;;;;;20.14;100.00;96025.52;108434;1271;24240;-85
2023/08/28 00:48:35;;;;;;;18.00;16.30;;;;;;;20.16;100.00;96024.10;108435;1270;24251;-85
2023/08/28 00:51:04;;;;;;;19.10;17.30;;;;;;;20.20;100.00;96025.09;108408;1276;22652;-85
2023/08/28 00:53:33;;;;;;;19.90;18.00;;;;;;;20.24;100.00;96030.71;108410;1276;25304;-85
2023/08/28 00:56:01;;;;;;;19.10;17.20;;;;;;;20.27;100.00;96035.30;108434;1270;22542;-85
2023/08/28 00:58:30;;;;;;;18.70;16.20;;;;;;;20.28;100.00;96040.27;108427;1269;23033;-85
2023/08/28 01:00:58;;;;;;;19.60;17.70;;;;;;;20.28;100.00;96045.34;108446;1276;22608;-85
2023/08/28 01:03:26;;;;;;;20.40;18.40;;;;;;;20.26;100.00;96047.04;108443;1276;25294;-85
2023/08/28 01:06:02;;;;;;;24.10;21.80;;;;;;;20.26;100.00;96051.58;108439;1270;23017;-85
2023/08/28 01:08:39;;;;;;;28.00;25.30;;;;;;;20.28;100.00;96058.02;108377;1276;25039;-85
2023/08/28 01:11:14;;;;;;;29.00;26.30;;;;;;;20.32;100.00;96063.33;108468;1276;22709;-85
2023/08/28 01:13:50;;;;;;;28.90;26.20;;;;;;;20.34;100.00;96063.13;108420;1276;26197;-85
2023/08/28 01:16:22;;;;;;;31.40;28.20;;;;;;;20.37;100.00;96065.64;108420;1276;22549;-86
2023/08/28 01:18:51;;;;;;;31.60;28.30;;;;;;;20.38;100.00;96071.90;108427;1270;22531;-85
2023/08/28 01:21:20;;;;;;;36.10;31.00;;;;;;;20.42;100.00;96077.65;108458;1276;22534;-85
2023/08/28 01:23:55;;;;;;;34.60;31.10;;;;;;;20.44;100.00;96080.61;108438;1276;24269;-85
2023/08/28 01:26:24;;;;;;;38.10;33.70;;;;;;;20.47;100.00;96088.27;108444;1276;24268;-85
2023/08/28 01:28:53;;;;;;;39.00;32.90;;;;;;;20.47;100.00;96088.43;108448;1276;23157;-85
2023/08/28 01:31:22;;;;;;;42.10;35.20;;;;;;;20.46;100.00;96089.34;108411;1274;25294;-85
2023/08/28 01:33:52;;;;;;;40.80;33.20;;;;;;;20.44;100.00;96089.92;108426;1276;22545;-85
2023/08/28 01:36:25;;;;;;;43.40;33.60;;;;;;;20.41;100.00;96089.92;108449;1275;25403;-85
2023/08/28 01:38:59;;;;;;;42.40;33.00;;;;;;;20.30;100.00;96096.91;108439;1269;24261;-85
2023/08/28 01:41:28;;;;;;;40.30;31.80;;;;;;;20.24;100.00;96093.67;108429;1276;22590;-85
2023/08/28 01:44:01;;;;;;;41.80;32.90;;;;;;;20.18;100.00;96094.58;108439;1276;25396;-85
2023/08/28 01:46:31;;;;;;;42.00;33.60;;;;;;;20.13;100.00;96092.39;108423;1276;22533;-85
2023/08/28 01:49:00;;;;;;;41.00;32.20;;;;;;;20.07;100.00;96093.94;108411;1253;23207;-85
2023/08/28 01:51:28;;;;;;;46.80;36.40;;;;;;;19.98;100.00;96094.36;108431;1276;22944;-85
2023/08/28 01:53:56;;;;;;;43.50;32.60;;;;;;;19.92;100.00;96095.32;108442;1276;22594;-85
2023/08/28 01:56:24;;;;;;;42.80;32.20;;;;;;;19.83;100.00;96094.95;108410;1270;22566;-86
2023/08/28 01:58:56;;;;;;;46.50;36.50;;;;;;;19.75;100.00;96095.08;108397;1270;22610;-86
2023/08/28 02:01:25;;;;;;;45.20;34.60;;;;;;;19.70;100.00;96095.51;108440;1273;22527;-85
2023/08/28 02:03:53;;;;;;;46.20;34.40;;;;;;;19.71;100.00;96095.46;108450;1276;25303;-85
2023/08/28 02:06:22;;;;;;;46.90;35.80;;;;;;;19.71;100.00;96098.52;108465;1276;22526;-85
2023/08/28 02:08:51;;;;;;;42.50;30.80;;;;;;;19.71;100.00;96095.30;108404;1257;24328;-85
2023/08/28 02:11:19;;;;;;;38.90;30.90;;;;;;;19.74;100.00;96100.67;108430;1268;22548;-85
2023/08/28 02:13:47;;;;;;;42.20;31.80;;;;;;;19.71;100.00;96106.43;108412;1276;24276;-85
2023/08/28 02:16:17;;;;;;;38.50;30.10;;;;;;;19.70;100.00;96105.56;108440;1276;22534;-85
2023/08/28 02:18:45;;;;;;;37.40;30.40;;;;;;;19.71;100.00;96110.37;108478;1276;22608;-85
2023/08/28 02:21:13;;;;;;;41.40;31.40;;;;;;;19.76;100.00;96112.23;108435;1276;22565;-85
2023/08/28 02:23:42;;;;;;;37.40;28.80;;;;;;;19.80;100.00;96113.64;108412;1270;22549;-85
2023/08/28 02:26:12;;;;;;;35.50;28.60;;;;;;;19.84;100.00;96113.59;108452;1276;22580;-85
2023/08/28 02:28:41;;;;;;;34.40;27.30;;;;;;;19.90;100.00;96110.80;108415;1276;23378;-85
2023/08/28 02:31:09;;;;;;;32.10;26.60;;;;;;;19.94;100.00;96115.88;108460;1276;25423;-85
2023/08/28 02:33:39;;;;;;;29.80;24.10;;;;;;;19.97;100.00;96120.71;108433;1276;22538;-85
2023/08/28 02:36:08;;;;;;;27.30;23.30;;;;;;;19.96;100.00;96121.08;108412;1273;22545;-85
2023/08/28 02:38:40;;;;;;;28.10;23.00;;;;;;;19.94;100.00;96120.11;108400;1273;22569;-85
2023/08/28 02:41:10;;;;;;;30.50;23.80;;;;;;;19.97;100.00;96120.08;108500;1276;22576;-85
2023/08/28 02:43:45;;;;;;;30.10;23.50;;;;;;;19.92;100.00;96129.36;108406;1275;22647;-85
2023/08/28 02:46:14;;;;;;;30.00;21.90;;;;;;;19.84;100.00;96128.95;108419;1276;25530;-85
2023/08/28 02:48:45;;;;;;;27.00;20.40;;;;;;;19.75;100.00;96128.59;108430;1269;26566;-85
2023/08/28 02:51:13;;;;;;;24.10;18.20;;;;;;;19.69;100.00;96130.80;108439;1270;25403;-85
2023/08/28 02:53:42;;;;;;;18.90;13.90;;;;;;;19.52;100.00;96131.39;108426;1270;22611;-86
2023/08/28 02:56:34;;;;;;;20.50;16.50;;;;;;;19.32;100.00;96135.97;108430;1276;22531;-85
2023/08/28 02:59:03;;;;;;;17.70;15.40;;;;;;;19.16;100.00;96138.70;108412;1269;24506;-85
2023/08/28 03:01:34;;;;;;;17.90;16.00;;;;;;;19.20;100.00;96138.73;108404;1276;25247;-85
2023/08/28 03:04:04;;;;;;;13.70;11.30;;;;;;;19.25;100.00;96139.46;108485;1276;22536;-85
2023/08/28 03:06:35;;;;;;;10.00;8.50;;;;;;;19.27;100.00;96149.42;108435;1271;24356;-85
2023/08/28 03:09:06;;;;;;;12.80;11.50;;;;;;;19.26;100.00;96161.20;108377;1269;25352;-85
2023/08/28 03:11:34;;;;;;;10.20;8.90;;;;;;;19.28;100.00;96167.11;108498;1271;22527;-85
2023/08/28 03:14:03;;;;;;;9.20;7.20;;;;;;;19.30;100.00;96168.92;108416;1276;22564;-85
2023/08/28 03:16:31;;;;;;;7.30;6.50;;;;;;;19.22;100.00;96171.56;108403;1276;25298;-84
2023/08/28 03:19:00;;;;;;;7.80;5.90;;;;;;;19.11;100.00;96174.27;108449;1276;22542;-84
2023/08/28 03:21:29;;;;;;;8.40;5.20;;;;;;;18.96;100.00;96175.33;108400;1276;22523;-85
2023/08/28 03:23:59;;;;;;;6.40;5.50;;;;;;;18.82;100.00;96175.38;108496;1276;22544;-85
2023/08/28 03:26:29;;;;;;;6.80;5.10;;;;;;;18.76;100.00;96189.35;108427;1276;22527;-85
2023/08/28 03:29:03;;;;;;;5.80;4.60;;;;;;;18.64;100.00;96191.39;108442;1276;22541;-84
2023/08/28 03:31:32;;;;;;;9.70;5.50;;;;;;;18.51;100.00;96193.59;108455;1269;22648;-84
2023/08/28 03:34:00;;;;;;;5.60;5.10;;;;;;;18.48;100.00;96194.27;108417;1276;22538;-84
2023/08/28 03:36:32;;;;;;;5.80;5.20;;;;;;;18.58;100.00;96192.04;108426;1276;22527;-85
2023/08/28 03:39:00;;;;;;;6.10;5.50;;;;;;;18.64;100.00;96193.01;108401;1269;23358;-85
2023/08/28 03:41:33;;;;;;;6.30;5.10;;;;;;;18.71;100.00;96184.98;108443;1272;22554;-85
2023/08/28 03:44:02;;;;;;;5.10;3.80;;;;;;;18.78;100.00;96183.66;108409;1275;25250;-85
2023/08/28 03:46:31;;;;;;;4.10;3.50;;;;;;;18.69;100.00;96194.73;108416;1273;25377;-85
2023/08/28 03:48:59;;;;;;;4.20;3.90;;;;;;;18.46;100.00;96206.30;108429;1269;24404;-85
2023/08/28 03:51:27;;;;;;;4.20;2.80;;;;;;;18.33;100.00;96211.08;108402;1270;22559;-85
2023/08/28 03:53:56;;;;;;;3.40;3.00;;;;;;;18.22;100.00;96221.79;108465;1276;22553;-85
2023/08/28 03:56:24;;;;;;;4.00;3.00;;;;;;;18.11;100.00;96213.54;108438;1273;22491;-84
2023/08/28 03:58:52;;;;;;;3.10;2.80;;;;;;;18.06;100.00;96217.67;108416;1270;22654;-85
2023/08/28 04:01:21;;;;;;;2.80;2.10;;;;;;;18.02;100.00;96211.36;108435;1275;22543;-85
2023/08/28 04:03:49;;;;;;;5.20;3.40;;;;;;;18.04;100.00;96205.52;108427;1276;22524;-85
2023/08/28 04:06:17;;;;;;;3.50;2.50;;;;;;;18.09;100.00;96213.72;108420;1270;22527;-85
2023/08/28 04:08:46;;;;;;;5.20;2.90;;;;;;;18.08;100.00;96216.36;108400;1265;22574;-85
2023/08/28 04:11:14;;;;;;;4.00;2.60;;;;;;;18.10;100.00;96212.22;108419;1276;22573;-85
2023/08/28 04:13:42;;;;;;;2.10;1.90;;;;;;;18.12;100.00;96211.26;108404;1269;22587;-85
2023/08/28 04:16:10;;;;;;;3.10;1.70;;;;;;;18.08;100.00;96219.80;108435;1269;22640;-85
2023/08/28 04:18:38;;;;;;;2.60;1.50;;;;;;;18.11;100.00;96211.16;108438;1276;22525;-85
2023/08/28 04:21:07;;;;;;;2.30;2.00;;;;;;;18.19;100.00;96206.59;108459;1268;22525;-85
2023/08/28 04:23:35;;;;;;;1.30;1.20;;;;;;;18.24;100.00;96213.27;108415;1270;22552;-85
2023/08/28 04:26:03;;;;;;;1.60;1.50;;;;;;;18.18;100.00;96206.70;108560;1276;22588;-85
2023/08/28 04:28:32;;;;;;;1.70;1.20;;;;;;;18.13;100.00;96205.14;108530;1270;22523;-84
2023/08/28 04:31:00;;;;;;;3.00;1.90;;;;;;;18.17;100.00;96192.64;108581;1276;22524;-84
2023/08/28 04:33:29;;;;;;;4.20;2.20;;;;;;;18.21;100.00;96198.13;108554;1273;25324;-85
2023/08/28 04:35:57;;;;;;;2.50;2.30;;;;;;;18.26;100.00;96202.41;108526;1276;22523;-85
2023/08/28 04:38:26;;;;;;;4.40;2.30;;;;;;;18.29;100.00;96189.80;108419;1276;22530;-84
2023/08/28 04:40:54;;;;;;;3.00;1.50;;;;;;;18.33;100.00;96210.85;108444;1271;24356;-85
2023/08/28 04:43:22;;;;;;;2.80;1.60;;;;;;;18.22;100.00;96232.90;108434;1276;22555;-85
2023/08/28 04:45:51;;;;;;;3.60;1.70;;;;;;;18.06;100.00;96210.70;108401;1276;23960;-85
2023/08/28 04:48:20;;;;;;;2.40;1.50;;;;;;;18.08;100.00;96223.94;108424;1276;22537;-85
2023/08/28 04:50:48;;;;;;;2.20;1.30;;;;;;;18.00;100.00;96227.29;108444;1276;22538;-85
2023/08/28 04:53:17;;;;;;;2.30;1.50;;;;;;;18.00;100.00;96215.20;108435;1269;22588;-85
2023/08/28 04:55:46;;;;;;;1.80;1.20;;;;;;;18.10;100.00;96238.89;108448;1276;22532;-85
2023/08/28 04:58:14;;;;;;;2.10;1.00;;;;;;;18.15;100.00;96233.97;108401;1269;22536;-85
2023/08/28 05:00:42;;;;;;;3.40;1.30;;;;;;;18.17;100.00;96229.61;108415;1274;22548;-85
2023/08/28 05:03:11;;;;;;;2.50;1.30;;;;;;;18.17;100.00;96227.61;108374;1270;23210;-85
2023/08/28 05:05:40;;;;;;;1.40;1.30;;;;;;;18.22;100.00;96215.64;108413;1273;22942;-85
2023/08/28 05:08:09;;;;;;;1.80;1.40;;;;;;;18.27;100.00;96217.25;108381;1276;25497;-84
2023/08/28 05:10:38;;;;;;;2.80;1.90;;;;;;;18.31;100.00;96224.06;108446;1276;22667;-85
2023/08/28 05:13:06;;;;;;;2.10;1.20;;;;;;;18.22;100.00;96209.13;108430;1276;22531;-86
2023/08/28 05:15:35;;;;;;;1.80;1.60;;;;;;;18.15;100.00;96198.30;108410;1272;22538;-86
2023/08/28 05:18:06;;;;;;;2.10;1.60;;;;;;;18.16;100.00;96202.21;108419;1276;22534;-85
2023/08/28 05:20:34;;;;;;;2.80;1.50;;;;;;;18.21;100.00;96206.94;108466;1276;22520;-85
2023/08/28 05:23:03;;;;;;;1.90;1.60;;;;;;;18.17;100.00;96210.66;108455;1276;22534;-86
2023/08/28 05:25:32;;;;;;;2.50;1.70;;;;;;;18.11;100.00;96207.86;108412;1276;22546;-85
2023/08/28 05:28:00;;;;;;;4.20;1.80;;;;;;;18.04;100.00;96208.12;108397;1268;22519;-84
2023/08/28 05:30:29;;;;;;;2.40;2.20;;;;;;;18.01;100.00;96213.13;108408;1269;22534;-85
2023/08/28 05:32:57;;;;;;;4.60;1.90;;;;;;;18.07;100.00;96214.17;108445;1272;24401;-85
2023/08/28 05:35:26;;;;;;;3.00;1.90;;;;;;;18.16;100.00;96211.68;108408;1276;22548;-85
2023/08/28 05:37:56;;;;;;;2.80;1.90;;;;;;;18.11;100.00;96204.42;108411;1269;22544;-85
2023/08/28 05:40:25;;;;;;;2.40;1.90;;;;;;;18.03;100.00;96200.59;108407;1276;22563;-85
2023/08/28 05:42:54;;;;;;;2.30;1.90;;;;;;;18.00;100.00;96197.64;108456;1276;22538;-85
2023/08/28 05:45:22;;;;;;;2.00;1.90;;;;;;;18.09;100.00;96204.13;108411;1269;22555;-85
2023/08/28 05:47:50;;;;;;;3.00;2.50;;;;;;;18.17;100.00;96208.89;108477;1268;22517;-85
2023/08/28 05:50:19;;;;;;;2.60;2.30;;;;;;;18.24;100.00;96205.27;108391;1273;23245;-84
2023/08/28 05:52:47;;;;;;;2.40;2.20;;;;;;;18.31;100.00;96206.86;108482;1273;22557;-85
2023/08/28 05:55:16;;;;;;;2.50;2.20;;;;;;;18.29;100.00;96207.48;108426;1276;25552;-85
2023/08/28 05:57:47;;;;;;;3.10;2.30;;;;;;;18.31;100.00;96202.45;108485;1269;22714;-85
2023/08/28 06:00:18;;;;;;;2.40;2.10;;;;;;;18.38;100.00;96197.41;108435;1276;22540;-84
2023/08/28 06:02:46;;;;;;;2.40;2.10;;;;;;;18.42;100.00;96194.55;108469;1272;26538;-85
2023/08/28 06:05:15;;;;;;;2.40;2.00;;;;;;;18.50;100.00;96192.55;108450;1276;22533;-84
2023/08/28 06:07:44;;;;;;;3.20;2.50;;;;;;;18.53;100.00;96190.58;108473;1272;22523;-85
2023/08/28 06:10:17;;;;;;;2.70;2.40;;;;;;;18.57;100.00;96191.76;108428;1271;22713;-85
2023/08/28 06:12:46;;;;;;;3.00;2.00;;;;;;;18.63;100.00;96195.55;108486;1276;22598;-87
2023/08/28 06:15:15;;;;;;;2.60;2.00;;;;;;;18.62;100.00;96193.76;108424;1273;22644;-86
2023/08/28 06:17:43;;;;;;;;;;;;;;;18.60;100.00;96191.10;108448;1276;22505;-87
2023/08/28 06:20:13;;;;;;;4.00;1.90;;;;;;;18.57;100.00;96191.16;108416;1276;22531;-87
2023/08/28 06:22:43;;;;;;;2.90;2.10;;;;;;;18.56;100.00;96193.02;108481;1276;22559;-86
2023/08/28 06:25:12;;;;;;;4.20;2.20;;;;;;;18.54;100.00;96203.48;108525;1276;22686;-87
2023/08/28 06:27:40;;;;;;;2.80;2.30;;;;;;;18.51;100.00;96202.00;108806;1268;23323;-86
2023/08/28 06:30:10;;;;;;;2.30;2.00;;;;;;;18.54;100.00;96202.02;108720;1255;22551;-86
2023/08/28 06:32:38;;;;;;;4.10;2.50;;;;;;;18.58;100.00;96191.63;108513;1276;22563;-86
2023/08/28 06:35:09;;;;;;;3.70;3.00;;;;;;;18.61;100.00;96188.07;108460;1276;22540;-87
2023/08/28 06:37:38;;;;;;;6.00;3.20;;;;;;;18.64;100.00;96186.48;108514;1272;22550;-86
2023/08/28 06:40:09;;;;;;;5.10;3.20;;;;;;;18.64;100.00;96190.10;108430;1276;23055;-87
2023/08/28 06:42:47;;;;;;;4.20;3.20;;;;;;;18.61;100.00;96187.76;108508;1272;24286;-86
2023/08/28 06:45:16;;;;;;;4.70;3.60;;;;;;;18.60;100.00;96181.36;108783;1276;25287;-87
2023/08/28 06:47:44;;;;;;;4.70;4.20;;;;;;;18.61;100.00;96179.30;108495;1276;22530;-86
2023/08/28 06:50:15;;;;;;;4.50;4.10;;;;;;;18.62;100.00;96172.42;108415;1276;22531;-86
2023/08/28 06:52:44;;;;;;;4.60;3.90;;;;;;;18.62;100.00;96165.52;108443;1269;22525;-86
2023/08/28 06:55:12;;;;;;;4.40;3.80;;;;;;;18.54;100.00;96169.35;108449;1271;22564;-86
2023/08/28 06:57:41;;;;;;;4.30;3.90;;;;;;;18.48;100.00;96171.10;108455;1269;22540;-86
2023/08/28 07:00:12;;;;;;;5.30;4.60;;;;;;;18.47;100.00;96167.08;108446;1276;22558;-87
2023/08/28 07:02:41;;;;;;;5.00;4.50;;;;;;;18.51;100.00;96162.77;108506;1271;22531;-86
2023/08/28 07:05:10;;;;;;;6.80;5.10;;;;;;;18.54;100.00;96163.98;108484;1272;22494;-86
2023/08/28 07:07:38;;;;;;;5.60;5.00;;;;;;;18.55;100.00;96159.48;108472;1273;25745;-86
2023/08/28 07:10:08;;;;;;;5.70;4.40;;;;;;;18.58;100.00;96159.44;108425;1276;25250;-86
2023/08/28 07:12:36;;;;;;;4.50;4.10;;;;;;;18.61;100.00;96157.15;108528;1276;22528;-86
2023/08/28 07:15:37;;;;;;;5.70;3.80;;;;;;;18.65;100.00;96158.41;108460;1269;22538;-86
2023/08/28 07:18:06;;;;;;;4.10;3.60;;;;;;;18.67;100.00;96156.33;108487;1269;26619;-85
2023/08/28 07:20:35;;;;;;;5.10;4.20;;;;;;;18.72;100.00;96152.40;108479;1276;22537;-86
2023/08/28 07:23:03;;;;;;;4.70;3.60;;;;;;;18.76;100.00;96158.04;108481;1273;22553;-86
2023/08/28 07:25:32;;;;;;;3.40;3.10;;;;;;;18.78;100.00;96159.17;108451;1269;22537;-86
2023/08/28 07:28:00;;;;;;;4.60;3.10;;;;;;;18.78;100.00;96156.27;108326;1269;198504;-84
2023/08/28 07:30:28;;;;;;;4.00;3.20;;;;;;;18.84;100.00;96153.58;108449;1276;22521;-86
2023/08/28 07:32:57;;;;;;;3.00;2.70;;;;;;;18.89;100.00;96155.73;108475;1276;22540;-85
2023/08/28 07:35:29;;;;;;;4.20;2.70;;;;;;;18.94;100.00;96156.02;108499;1266;25912;-86
2023/08/28 07:37:57;;;;;;;4.80;2.90;;;;;;;18.95;100.00;96155.34;108477;1273;22527;-86
2023/08/28 07:40:26;;;;;;;3.80;2.90;;;;;;;18.99;100.00;96158.45;108488;1276;22556;-86
2023/08/28 07:42:56;;;;;;;3.20;2.80;;;;;;;19.05;100.00;96160.75;108503;1276;22540;-86
2023/08/28 07:45:25;;;;;;;3.30;3.00;;;;;;;19.10;100.00;96160.41;108514;1276;25298;-85
2023/08/28 07:47:53;;;;;;;5.20;3.60;;;;;;;19.13;100.00;96155.27;108502;1269;25242;-86
2023/08/28 07:50:21;;;;;;;3.00;2.70;;;;;;;19.16;100.00;96151.29;108460;1271;22531;-86
2023/08/28 07:52:50;;;;;;;4.20;2.80;;;;;;;19.17;100.00;96155.54;108470;1270;22528;-85
2023/08/28 07:55:18;;;;;;;3.90;2.70;;;;;;;19.13;100.00;96153.98;108518;1276;25356;-86
2023/08/28 07:57:47;;;;;;;5.10;2.90;;;;;;;19.17;100.00;96157.77;108470;1276;22535;-86
2023/08/28 08:00:20;;;;;;;3.20;2.90;;;;;;;19.24;100.00;96160.17;108481;1270;22489;-85
2023/08/28 08:02:51;;;;;;;3.40;3.10;;;;;;;19.26;100.00;96163.99;108520;1276;22577;-86
2023/08/28 08:05:20;;;;;;;3.70;3.00;;;;;;;19.23;100.00;96162.52;108555;1276;22584;-86
2023/08/28 08:07:49;;;;;;;3.40;2.90;;;;;;;19.21;100.00;96167.02;108491;1276;22525;-85
2023/08/28 08:10:17;;;;;;;4.90;3.10;;;;;;;19.20;100.00;96166.69;108484;1276;22574;-85
2023/08/28 08:12:46;;;;;;;5.20;3.40;;;;;;;19.22;100.00;96167.11;108508;1271;22521;-85
2023/08/28 08:15:14;;;;;;;5.00;3.30;;;;;;;19.23;100.00;96161.53;108511;1274;21726;-85
2023/08/28 08:17:43;;;;;;;5.20;2.90;;;;;;;19.24;100.00;96158.33;108494;1274;23934;-86
2023/08/28 08:20:12;;;;;;;2.90;2.60;;;;;;;19.25;100.00;96158.97;108493;1267;22527;-85
2023/08/28 08:22:43;;;;;;;3.00;2.70;;;;;;;19.25;100.00;96162.80;108519;1273;22559;-85
2023/08/28 08:25:13;;;;;;;3.90;3.30;;;;;;;19.22;100.00;96161.89;108568;1276;23011;-85
2023/08/28 08:27:44;;;;;;;5.30;3.40;;;;;;;19.22;100.00;96165.48;108545;1271;22557;-85
2023/08/28 08:30:14;;;;;;;5.50;3.90;;;;;;;19.22;100.00;96169.48;108492;1269;25237;-85
2023/08/28 08:32:43;;;;;;;4.30;3.90;;;;;;;19.27;100.00;96170.98;108541;1276;22533;-86
2023/08/28 08:35:13;;;;;;;5.80;4.40;;;;;;;19.31;100.00;96165.20;108494;1276;22537;-86
2023/08/28 08:37:41;;;;;;;6.70;4.10;;;;;;;19.33;100.00;96160.57;108505;1276;22574;-86
2023/08/28 08:40:13;;;;;;;5.40;3.60;;;;;;;19.37;100.00;96152.44;108522;1276;25427;-86
2023/08/28 08:42:42;;;;;;;4.20;3.70;;;;;;;19.39;100.00;96152.95;108538;1276;22530;-86
2023/08/28 08:45:11;;;;;;;5.50;4.50;;;;;;;19.40;100.00;96148.52;108513;1276;22579;-86
2023/08/28 08:47:41;;;;;;;4.90;4.40;;;;;;;19.40;100.00;96143.52;108497;1271;22550;-85
2023/08/28 08:50:12;;;;;;;4.80;4.30;;;;;;;19.38;100.00;96146.23;108532;1271;22530;-85
2023/08/28 08:52:43;;;;;;;7.90;5.00;;;;;;;19.38;100.00;96142.70;108542;1271;24224;-85
2023/08/28 08:55:21;;;;;;;5.90;5.10;;;;;;;19.39;100.00;96141.81;108471;1273;22942;-85
2023/08/28 08:57:55;;;;;;;6.80;5.40;;;;;;;19.42;100.00;96139.90;108547;1276;22952;-85
2023/08/28 09:00:26;;;;;;;7.00;6.30;;;;;;;19.44;100.00;96137.81;108507;1271;22534;-85
2023/08/28 09:02:56;;;;;;;6.90;6.20;;;;;;;19.46;100.00;96133.01;108502;1273;22547;-85
2023/08/28 09:05:25;;;;;;;8.30;6.90;;;;;;;19.43;100.00;96132.11;108505;1273;22552;-85
2023/08/28 09:07:55;;;;;;;8.00;7.20;;;;;;;19.44;100.00;96130.59;108487;1269;22594;-85
2023/08/28 09:10:23;;;;;;;8.20;7.40;;;;;;;19.44;100.00;96133.05;108531;1272;25346;-85
2023/08/28 09:12:52;;;;;;;9.30;7.40;;;;;;;19.43;100.00;96130.63;108480;1276;22527;-85
2023/08/28 09:15:21;;;;;;;8.10;7.30;;;;;;;19.43;100.00;96132.02;108500;1276;22514;-85
2023/08/28 09:17:50;;;;;;;10.00;8.30;;;;;;;19.44;100.00;96131.59;108530;1276;22520;-85
2023/08/28 09:20:21;;;;;;;9.70;8.10;;;;;;;19.44;100.00;96129.73;108492;1276;24257;-85
2023/08/28 09:22:52;;;;;;;11.20;7.90;;;;;;;19.44;100.00;96127.90;108547;1276;22531;-84
2023/08/28 09:25:22;;;;;;;9.00;8.10;;;;;;;19.45;100.00;96122.31;108504;1272;22612;-84
2023/08/28 09:27:54;;;;;;;9.10;8.00;;;;;;;19.43;100.00;96120.50;108527;1272;22527;-84
2023/08/28 09:30:31;;;;;;;9.80;7.80;;;;;;;19.40;100.00;96118.57;108545;1276;22553;-84
2023/08/28 09:33:04;;;;;;;9.20;7.80;;;;;;;19.40;100.00;96113.87;108507;1271;22556;-83
2023/08/28 09:35:38;;;;;;;8.30;7.40;;;;;;;19.38;100.00;96114.98;108547;1268;22622;-83
2023/08/28 09:38:07;;;;;;;8.70;7.40;;;;;;;19.39;100.00;96108.26;108581;1271;22534;-83
2023/08/28 09:40:37;;;;;;;8.40;7.20;;;;;;;19.38;100.00;96109.46;108516;1273;22556;-83
2023/08/28 09:43:12;;;;;;;7.70;6.90;;;;;;;19.36;100.00;96109.86;108545;1275;24242;-83
2023/08/28 09:45:42;;;;;;;7.60;6.90;;;;;;;19.35;100.00;96111.01;108507;1275;22542;-83
2023/08/28 09:48:12;;;;;;;8.20;7.30;;;;;;;19.34;100.00;96107.68;108483;1269;24256;-82
2023/08/28 09:50:41;;;;;;;9.50;7.40;;;;;;;19.35;100.00;96102.17;108545;1273;22531;-83
2023/08/28 09:53:13;;;;;;;7.60;6.80;;;;;;;19.37;100.00;96100.75;108519;1276;24222;-83
2023/08/28 09:55:46;;;;;;;8.30;7.60;;;;;;;19.34;100.00;96092.23;108542;1274;24490;-83
2023/08/28 09:58:14;;;;;;;8.40;7.10;;;;;;;19.31;100.00;96092.55;108422;1269;22542;-83
2023/08/28 10:00:44;;;;;;;10.60;7.00;;;;;;;19.30;100.00;96094.52;108533;1276;21828;-83
2023/08/28 10:03:14;;;;;;;7.80;6.50;;;;;;;19.29;100.00;96096.88;108523;1272;23787;-84
2023/08/28 10:05:44;;;;;;;8.10;6.50;;;;;;;19.25;100.00;96098.16;108503;1276;22473;-84
2023/08/28 10:08:14;;;;;;;6.60;6.00;;;;;;;19.22;100.00;96096.85;108506;1276;38159;-83
2023/08/28 10:10:45;;;;;;;7.70;6.90;;;;;;;19.18;100.00;96094.84;108522;1276;25048;-83
2023/08/28 10:13:16;;;;;;;6.60;5.90;;;;;;;19.16;100.00;96097.19;108497;1269;22535;-83
2023/08/28 10:15:53;;;;;;;6.90;6.10;;;;;;;19.17;100.00;96096.82;108555;1274;22527;-82
2023/08/28 10:18:30;;;;;;;6.70;5.20;;;;;;;19.17;100.00;96098.74;108615;1274;22606;-83
2023/08/28 10:20:59;;;;;;;5.30;4.90;;;;;;;19.14;100.00;96094.56;108506;1276;22638;-83
2023/08/28 10:23:28;;;;;;;5.60;5.00;;;;;;;19.11;100.00;96093.13;108553;1276;22566;-83
2023/08/28 10:25:59;;;;;;;6.30;5.00;;;;;;;19.13;100.00;96089.77;108472;1273;24345;-83
2023/08/28 10:28:28;;;;;;;5.40;4.80;;;;;;;19.16;100.00;96086.80;108504;1274;23003;-82
2023/08/28 10:30:58;;;;;;;6.00;4.90;;;;;;;19.18;100.00;96090.46;108497;1276;22644;-83
2023/08/28 10:33:27;;;;;;;6.10;5.30;;;;;;;19.19;100.00;96092.10;108514;1269;25270;-82
2023/08/28 10:35:56;;;;;;;5.30;4.80;;;;;;;19.20;100.00;96090.21;108526;1258;24231;-83
2023/08/28 10:38:26;;;;;;;5.10;4.20;;;;;;;19.17;100.00;96088.07;108499;1273;26339;-83
2023/08/28 10:40:58;;;;;;;4.80;4.40;;;;;;;19.15;100.00;96088.39;108605;1272;23588;-83
2023/08/28 10:43:29;;;;;;;4.80;4.40;;;;;;;19.12;100.00;96087.46;108543;1273;24342;-83
2023/08/28 10:46:01;;;;;;;5.90;5.10;;;;;;;19.12;100.00;96089.00;108594;1276;22570;-83
2023/08/28 10:48:30;;;;;;;5.90;5.00;;;;;;;19.13;100.00;96090.31;108510;1276;22537;-83
2023/08/28 10:51:00;;;;;;;5.50;5.00;;;;;;;19.11;100.00;96088.04;108506;1273;25405;-84
2023/08/28 10:53:27;;;;;;;;;;;;;;;19.10;100.00;96087.33;108509;1274;22545;-84
2023/08/28 10:55:57;;;;;;;5.90;5.30;;;;;;;19.12;100.00;96085.38;108493;1276;22538;-84
2023/08/28 10:58:30;;;;;;;5.90;4.90;;;;;;;19.13;100.00;96079.91;108487;1276;22767;-84
2023/08/28 11:01:16;;;;;;;6.10;5.60;;;;;;;19.15;100.00;96077.26;108547;1276;22556;-84
2023/08/28 11:03:58;;;;;;;6.30;5.70;;;;;;;19.17;100.00;96076.09;108532;1266;22581;-84
2023/08/28 11:06:39;;;;;;;7.30;6.60;;;;;;;19.14;100.00;96080.21;108595;1269;22531;-84
2023/08/28 11:09:33;;;;;;;8.30;7.50;;;;;;;19.11;100.00;96083.29;108469;1274;22553;-84
2023/08/28 11:12:25;;;;;;;9.90;9.10;;;;;;;19.11;100.00;96080.21;108503;1276;22561;-84
2023/08/28 11:15:04;;;;;;;11.00;10.00;;;;;;;19.10;100.00;96077.80;108388;1275;22544;-84
2023/08/28 11:17:36;;;;;;;10.70;9.70;;;;;;;19.08;100.00;96073.38;108512;1273;22535;-85
2023/08/28 11:20:09;;;;;;;11.00;10.00;;;;;;;19.06;100.00;96075.18;108480;1276;25655;-85
2023/08/28 11:22:39;;;;;;;11.60;10.50;;;;;;;19.03;100.00;96072.21;108569;1276;22712;-85
2023/08/28 11:25:10;;;;;;;12.60;11.50;;;;;;;19.03;100.00;96073.65;108605;1269;23091;-85